Flughafen Kassel-Calden

Aus VATSIM Germany
Dies ist die bestätigte sowie die neueste Version dieser Seite.
Wechseln zu:Navigation, Suche
UnderCon icon.svg.pngDieser Artikel ist noch im Aufbau. Der Artikel kann daher unvollständig sein oder Fehler enthalten!


Kassel-Calden Airport
ICAO / IATA EDVK / KSF
Koordinaten N51°24′30″  E009°22′39″
Höhe 277 m / 909 ft
Wetter EDVK 171450Z 30011KT 9999 SCT026 18/11 Q1015
Pisten
Platzfrequenzen
Nur für Flugsimulationszwecke!



Informationen für Piloten und Lotsen
Pilotenbriefing

Standard Operating Procedures (SOP)

Letters of Agreement (LoAs)

Vorlage:Chartbox